Lehmann Sound — V2EM3 — position and weather

sailwx.info

Track history (hours):
 
Tides and Currents Weather Stations Pressure Air Temp Water Temp Dewpoint Dewpoint Depression Visibility Wind Speed Wind Dir Waves Ship Positions

Lehmann Sound

Last reported at 2018-Feb-14 17:13 UTC. Time now 2018-Feb-18 07:20 UTC.
Position N 54°54' E 019°38'.

Length 90 m; draft 4.2 m.

Type: Cargo ship. MMSI: 305476000.

Date/timePositionNaut miles runAvg speedWind from/ knotsBaromVisibWave heightAir tempDewpointWater temp
2018-Feb-14 17:13N 54°54' E 019°38'2 9.6
2018-Feb-14 17:00N 54°51' E 019°38'5 9.5
2018-Feb-14 16:30N 54°47' E 019°38'  
2018-Feb-11 14:30N 54°39' E 020°04'9 7.0
2018-Feb-11 13:13N 54°40' E 019°48'11 1.5
2018-Feb-11 06:01N 54°45' E 019°32'1 8.5
2018-Feb-11 05:56N 54°46' E 019°31'4 8.4
2018-Feb-11 05:30N 54°47' E 019°25'5 8.4
2018-Feb-11 04:58N 54°49' E 019°18'8 8.6
2018-Feb-11 03:59N 54°53' E 019°05'4 8.5
2018-Feb-11 03:30N 54°54' E 018°58'4 8.9
2018-Feb-11 03:01N 54°56' E 018°51'5 9.1
2018-Feb-11 02:30N 54°57' E 018°44'5 9.1
2018-Feb-11 02:00N 54°59' E 018°36'6 8.9
2018-Feb-11 01:19N 55°02' E 018°27'4 9.2
2018-Feb-11 00:49N 55°01' E 018°19'118 9.4
2018-Feb-10 12:19N 54°38' E 014°59'3 9.1
2018-Feb-10 11:58N 54°38' E 014°53'4 8.9
2018-Feb-10 11:30N 54°38' E 014°46'32 8.6
2018-Feb-10 07:47N 54°47' E 013°53'33 9.1
2018-Feb-10 04:11N 55°07' E 013°08'2 8.9
2018-Feb-10 03:57N 55°09' E 013°05'4 8.4
2018-Feb-10 03:31N 55°10' E 012°60'4 8.8
2018-Feb-10 03:00N 55°14' E 012°55'4 8.8
2018-Feb-10 02:30N 55°16' E 012°48'4 8.9
2018-Feb-10 02:01N 55°17' E 012°40'4 7.8
2018-Feb-10 01:30N 55°20' E 012°36'4 8.1
2018-Feb-10 01:01N 55°24' E 012°34'4 8.0
2018-Feb-10 00:31N 55°28' E 012°32'4 8.6
2018-Feb-10 00:00N 55°32' E 012°30'4 8.0
2018-Feb-09 23:31N 55°36' E 012°29'0 0.0
2018-Feb-09 23:00N 55°36' E 012°29'0 0.0
2018-Feb-09 22:45N 55°36' E 012°29'0 0.0
2018-Feb-08 18:30N 55°36' E 012°29'0 0.3
2018-Feb-08 18:00N 55°36' E 012°29'3 5.4
2018-Feb-08 17:30N 55°33' E 012°30'1 0.1
2018-Feb-08 01:29N 55°32' E 012°31'0 0.0
2018-Feb-08 00:59N 55°32' E 012°31'0 0.0
2018-Feb-08 00:29N 55°32' E 012°31'0 0.0
2018-Feb-07 23:56N 55°32' E 012°31'0 0.0
2018-Feb-07 23:29N 55°32' E 012°31'0 0.0
2018-Feb-07 22:59N 55°32' E 012°31'0 0.0
2018-Feb-07 22:26N 55°32' E 012°31'0 0.0
2018-Feb-07 21:59N 55°32' E 012°31'0 0.0
2018-Feb-07 21:29N 55°32' E 012°31'0 0.0
2018-Feb-07 09:28N 55°32' E 012°31'0 0.0
2018-Feb-07 08:58N 55°32' E 012°31'0 0.0
2018-Feb-07 08:28N 55°32' E 012°31'0 0.0
2018-Feb-07 07:58N 55°32' E 012°31'0 0.0
2018-Feb-07 07:28N 55°32' E 012°31'0 0.0
2018-Feb-07 06:52N 55°32' E 012°31'0 0.0
2018-Feb-07 06:28N 55°32' E 012°31'0 0.0
2018-Feb-07 05:58N 55°32' E 012°31'0 0.0
2018-Feb-07 05:28N 55°32' E 012°31'0 0.0
2018-Feb-07 04:58N 55°32' E 012°31'0 0.0
2018-Feb-07 04:28N 55°32' E 012°31'0 0.0
2018-Feb-07 03:55N 55°32' E 012°31'0 0.0
2018-Feb-07 03:28N 55°32' E 012°31'0 0.0
2018-Feb-07 02:58N 55°32' E 012°31'0 0.0
2018-Feb-07 02:25N 55°32' E 012°31'0 0.0
2018-Feb-07 01:58N 55°32' E 012°31'0 0.0
2018-Feb-07 01:25N 55°32' E 012°31'0 0.0
2018-Feb-07 00:55N 55°32' E 012°31'0 0.0
2018-Feb-07 00:28N 55°32' E 012°31'0 0.0
2018-Feb-06 23:58N 55°32' E 012°31'0 0.0
2018-Feb-06 23:28N 55°32' E 012°31'0 0.0
2018-Feb-06 22:58N 55°32' E 012°31'0 0.0
2018-Feb-06 22:28N 55°32' E 012°31'0 0.0
2018-Feb-06 21:58N 55°32' E 012°31'0 0.0
2018-Feb-06 21:28N 55°32' E 012°31'0 0.0
2018-Feb-06 20:58N 55°32' E 012°31'0 0.0
2018-Feb-06 20:28N 55°32' E 012°31'0 0.0
2018-Feb-06 19:58N 55°32' E 012°31'0 0.0
2018-Feb-06 19:25N 55°32' E 012°31'0 0.0
2018-Feb-06 18:58N 55°32' E 012°31'0 0.0
2018-Feb-06 18:28N 55°32' E 012°31'0 0.0
2018-Feb-06 17:58N 55°32' E 012°31'0 0.0
2018-Feb-06 17:28N 55°32' E 012°31'0 0.0
2018-Feb-06 16:58N 55°32' E 012°31'0 0.0
2018-Feb-06 16:28N 55°32' E 012°31'0 0.1
2018-Feb-06 15:58N 55°32' E 012°31'1 1.2
2018-Feb-06 15:30N 55°32' E 012°31'4 7.6
2018-Feb-06 15:00N 55°28' E 012°33'510.2
2018-Feb-06 14:30N 55°23' E 012°35'4 9.2
2018-Feb-06 14:00N 55°19' E 012°39'5 9.4
2018-Feb-06 13:30N 55°17' E 012°46'5 9.7
2018-Feb-06 13:00N 55°16' E 012°55'5 9.7
2018-Feb-06 12:30N 55°15' E 013°03'5 9.6
2018-Feb-06 12:00N 55°15' E 013°11'38 9.5
2018-Feb-06 07:56N 55°16' E 014°19'4 9.8
2018-Feb-06 07:30N 55°19' E 014°24'5 9.9
2018-Feb-06 06:58N 55°23' E 014°30'5 9.9
2018-Feb-06 06:29N 55°27' E 014°36'5 9.7
2018-Feb-06 06:00N 55°29' E 014°43'5 9.6
2018-Feb-06 05:30N 55°32' E 014°50'5 9.6
2018-Feb-06 04:57N 55°34' E 014°58'4 9.5
2018-Feb-06 04:29N 55°37' E 015°05'5 9.2
2018-Feb-06 04:00N 55°39' E 015°12'5 9.1
2018-Feb-06 03:30N 55°41' E 015°19'4 8.8
2018-Feb-06 03:00N 55°43' E 015°25'5 9.2
2018-Feb-06 02:30N 55°46' E 015°33'4 9.0
2018-Feb-06 02:00N 55°48' E 015°39'5 9.1
2018-Feb-06 01:30N 55°50' E 015°46'5 9.2
2018-Feb-06 01:00N 55°53' E 015°53'5 9.2
2018-Feb-06 00:30N 55°55' E 016°00'5 9.2
2018-Feb-06 00:00N 55°57' E 016°08'5 9.5
2018-Feb-05 23:30N 55°60' E 016°15'5 9.6
2018-Feb-05 23:00N 56°02' E 016°22'5 9.9
2018-Feb-05 22:30N 56°04' E 016°30'510.1
2018-Feb-05 22:00N 56°07' E 016°38'510.0
2018-Feb-05 21:30N 56°10' E 016°45'  
Track history (hours):
 
Tides and Currents Weather Stations Pressure Air Temp Water Temp Dewpoint Dewpoint Depression Visibility Wind Speed Wind Dir Waves Ship Positions

Lehmann Sound

Last reported at 2018-Feb-14 17:13 UTC. Time now 2018-Feb-18 07:20 UTC.
Position N 54°54' E 019°38'.

Length 90 m; draft 4.2 m.

Type: Cargo ship. MMSI: 305476000.

Date/timePositionNaut miles runAvg speedWind from/ knotsBaromVisibWave heightAir tempDewpointWater temp
2018-Feb-14 17:13N 54°54' E 019°38'2 9.6
2018-Feb-14 17:00N 54°51' E 019°38'5 9.5
2018-Feb-14 16:30N 54°47' E 019°38'  
2018-Feb-11 14:30N 54°39' E 020°04'9 7.0
2018-Feb-11 13:13N 54°40' E 019°48'11 1.5
2018-Feb-11 06:01N 54°45' E 019°32'1 8.5
2018-Feb-11 05:56N 54°46' E 019°31'4 8.4
2018-Feb-11 05:30N 54°47' E 019°25'5 8.4
2018-Feb-11 04:58N 54°49' E 019°18'8 8.6
2018-Feb-11 03:59N 54°53' E 019°05'4 8.5
2018-Feb-11 03:30N 54°54' E 018°58'4 8.9
2018-Feb-11 03:01N 54°56' E 018°51'5 9.1
2018-Feb-11 02:30N 54°57' E 018°44'5 9.1
2018-Feb-11 02:00N 54°59' E 018°36'6 8.9
2018-Feb-11 01:19N 55°02' E 018°27'4 9.2
2018-Feb-11 00:49N 55°01' E 018°19'118 9.4
2018-Feb-10 12:19N 54°38' E 014°59'3 9.1
2018-Feb-10 11:58N 54°38' E 014°53'4 8.9
2018-Feb-10 11:30N 54°38' E 014°46'32 8.6
2018-Feb-10 07:47N 54°47' E 013°53'33 9.1
2018-Feb-10 04:11N 55°07' E 013°08'2 8.9
2018-Feb-10 03:57N 55°09' E 013°05'4 8.4
2018-Feb-10 03:31N 55°10' E 012°60'4 8.8
2018-Feb-10 03:00N 55°14' E 012°55'4 8.8
2018-Feb-10 02:30N 55°16' E 012°48'4 8.9
2018-Feb-10 02:01N 55°17' E 012°40'4 7.8
2018-Feb-10 01:30N 55°20' E 012°36'4 8.1
2018-Feb-10 01:01N 55°24' E 012°34'4 8.0
2018-Feb-10 00:31N 55°28' E 012°32'4 8.6
2018-Feb-10 00:00N 55°32' E 012°30'4 8.0
2018-Feb-09 23:31N 55°36' E 012°29'0 0.0
2018-Feb-09 23:00N 55°36' E 012°29'0 0.0
2018-Feb-09 22:45N 55°36' E 012°29'0 0.0
2018-Feb-08 18:30N 55°36' E 012°29'0 0.3
2018-Feb-08 18:00N 55°36' E 012°29'3 5.4
2018-Feb-08 17:30N 55°33' E 012°30'1 0.1
2018-Feb-08 01:29N 55°32' E 012°31'0 0.0
2018-Feb-08 00:59N 55°32' E 012°31'0 0.0
2018-Feb-08 00:29N 55°32' E 012°31'0 0.0
2018-Feb-07 23:56N 55°32' E 012°31'0 0.0
2018-Feb-07 23:29N 55°32' E 012°31'0 0.0
2018-Feb-07 22:59N 55°32' E 012°31'0 0.0
2018-Feb-07 22:26N 55°32' E 012°31'0 0.0
2018-Feb-07 21:59N 55°32' E 012°31'0 0.0
2018-Feb-07 21:29N 55°32' E 012°31'0 0.0
2018-Feb-07 09:28N 55°32' E 012°31'0 0.0
2018-Feb-07 08:58N 55°32' E 012°31'0 0.0
2018-Feb-07 08:28N 55°32' E 012°31'0 0.0
2018-Feb-07 07:58N 55°32' E 012°31'0 0.0
2018-Feb-07 07:28N 55°32' E 012°31'0 0.0
2018-Feb-07 06:52N 55°32' E 012°31'0 0.0
2018-Feb-07 06:28N 55°32' E 012°31'0 0.0
2018-Feb-07 05:58N 55°32' E 012°31'0 0.0
2018-Feb-07 05:28N 55°32' E 012°31'0 0.0
2018-Feb-07 04:58N 55°32' E 012°31'0 0.0
2018-Feb-07 04:28N 55°32' E 012°31'0 0.0
2018-Feb-07 03:55N 55°32' E 012°31'0 0.0
2018-Feb-07 03:28N 55°32' E 012°31'0 0.0
2018-Feb-07 02:58N 55°32' E 012°31'0 0.0
2018-Feb-07 02:25N 55°32' E 012°31'0 0.0
2018-Feb-07 01:58N 55°32' E 012°31'0 0.0
2018-Feb-07 01:25N 55°32' E 012°31'0 0.0
2018-Feb-07 00:55N 55°32' E 012°31'0 0.0
2018-Feb-07 00:28N 55°32' E 012°31'0 0.0
2018-Feb-06 23:58N 55°32' E 012°31'0 0.0
2018-Feb-06 23:28N 55°32' E 012°31'0 0.0
2018-Feb-06 22:58N 55°32' E 012°31'0 0.0
2018-Feb-06 22:28N 55°32' E 012°31'0 0.0
2018-Feb-06 21:58N 55°32' E 012°31'0 0.0
2018-Feb-06 21:28N 55°32' E 012°31'0 0.0
2018-Feb-06 20:58N 55°32' E 012°31'0 0.0
2018-Feb-06 20:28N 55°32' E 012°31'0 0.0
2018-Feb-06 19:58N 55°32' E 012°31'0 0.0
2018-Feb-06 19:25N 55°32' E 012°31'0 0.0
2018-Feb-06 18:58N 55°32' E 012°31'0 0.0
2018-Feb-06 18:28N 55°32' E 012°31'0 0.0
2018-Feb-06 17:58N 55°32' E 012°31'0 0.0
2018-Feb-06 17:28N 55°32' E 012°31'0 0.0
2018-Feb-06 16:58N 55°32' E 012°31'0 0.0
2018-Feb-06 16:28N 55°32' E 012°31'0 0.1
2018-Feb-06 15:58N 55°32' E 012°31'1 1.2
2018-Feb-06 15:30N 55°32' E 012°31'4 7.6
2018-Feb-06 15:00N 55°28' E 012°33'510.2
2018-Feb-06 14:30N 55°23' E 012°35'4 9.2
2018-Feb-06 14:00N 55°19' E 012°39'5 9.4
2018-Feb-06 13:30N 55°17' E 012°46'5 9.7
2018-Feb-06 13:00N 55°16' E 012°55'5 9.7
2018-Feb-06 12:30N 55°15' E 013°03'5 9.6
2018-Feb-06 12:00N 55°15' E 013°11'38 9.5
2018-Feb-06 07:56N 55°16' E 014°19'4 9.8
2018-Feb-06 07:30N 55°19' E 014°24'5 9.9
2018-Feb-06 06:58N 55°23' E 014°30'5 9.9
2018-Feb-06 06:29N 55°27' E 014°36'5 9.7
2018-Feb-06 06:00N 55°29' E 014°43'5 9.6
2018-Feb-06 05:30N 55°32' E 014°50'5 9.6
2018-Feb-06 04:57N 55°34' E 014°58'4 9.5
2018-Feb-06 04:29N 55°37' E 015°05'5 9.2
2018-Feb-06 04:00N 55°39' E 015°12'5 9.1
2018-Feb-06 03:30N 55°41' E 015°19'4 8.8
2018-Feb-06 03:00N 55°43' E 015°25'5 9.2
2018-Feb-06 02:30N 55°46' E 015°33'4 9.0
2018-Feb-06 02:00N 55°48' E 015°39'5 9.1
2018-Feb-06 01:30N 55°50' E 015°46'5 9.2
2018-Feb-06 01:00N 55°53' E 015°53'5 9.2
2018-Feb-06 00:30N 55°55' E 016°00'5 9.2
2018-Feb-06 00:00N 55°57' E 016°08'5 9.5
2018-Feb-05 23:30N 55°60' E 016°15'5 9.6
2018-Feb-05 23:00N 56°02' E 016°22'5 9.9
2018-Feb-05 22:30N 56°04' E 016°30'510.1
2018-Feb-05 22:00N 56°07' E 016°38'510.0
2018-Feb-05 21:30N 56°10' E 016°45'  

Dump ship's entire track history